^^
Meteo Knjazevac Station Historical Data
Daily Summary for February 20, 2021 Units:  Both    English   Metric
Daily Weekly Monthly Yearly Custom
  High: Low: Average:
Temperature: 79.1 °F /  26.2 °C 54.7 °F /  12.6 °C 60.8 °F /  16 °C
Dew Point: 66.7 °F /  19.3 °C 51.5 °F /  10.8 °C 57.6 °F /  14.2 °C
Humidity: 99% 63% 90%
Wind Speed: 9mph /  14.5km/h - 3.5mph /  5.6km/h
Wind Gust: 19mph /  30.6km/h - -
Wind- - SW
Pressure: 30.20 in /  1022.6 hPa 29.92 in /  1013.1 hPa -
Precipitation: 0.08 in /  2.03 mm    
Historical Graphs
 
 
Tabular Data for February 20, 2021
Time Temperature Dew Point Pressure Wind Wind Speed Wind Gust Humidity Rainfall Rate (Hourly) solar Conditions
00:00 61.2 °F /  16.2 °C 58.2 °F /  14.6 °C 30.00in /  1015.8hPa SSE 2mph /  3.2km/h 7mph /  11.3km/h 90% 0.00in /  0mm 0 W/m2
00:10 61.3 °F /  16.3 °C 58.3 °F /  14.6 °C 30.00in /  1015.8hPa SE 2mph /  3.2km/h 11mph /  17.7km/h 90% 0.00in /  0mm 0 W/m2
00:20 61.2 °F /  16.2 °C 58.2 °F /  14.6 °C 29.99in /  1015.5hPa ENE 2mph /  3.2km/h 5mph /  8km/h 90% 0.00in /  0mm 0 W/m2
00:30 61 °F /  16.1 °C 58.3 °F /  14.6 °C 30.00in /  1015.8hPa SE 3mph /  4.8km/h 7mph /  11.3km/h 91% 0.00in /  0mm 0 W/m2
00:40 60.4 °F /  15.8 °C 57.7 °F /  14.3 °C 30.00in /  1015.8hPa SW 5mph /  8km/h 7mph /  11.3km/h 91% 0.00in /  0mm 0 W/m2
00:50 59.5 °F /  15.3 °C 57.5 °F /  14.2 °C 30.00in /  1015.8hPa WSW 3mph /  4.8km/h 7mph /  11.3km/h 93% 0.00in /  0mm 0 W/m2
01:00 59.3 °F /  15.2 °C 57.3 °F /  14.1 °C 30.00in /  1015.8hPa WSW 2mph /  3.2km/h 5mph /  8km/h 93% 0.00in /  0mm 0 W/m2
01:10 59 °F /  15 °C 57.3 °F /  14.1 °C 29.99in /  1015.5hPa WSW 1mph /  1.6km/h 3mph /  4.8km/h 94% 0.00in /  0mm 0 W/m2
01:20 58.8 °F /  14.9 °C 57.1 °F /  13.9 °C 30.00in /  1015.8hPa West 2mph /  3.2km/h 3mph /  4.8km/h 94% 0.00in /  0mm 0 W/m2
01:30 58.5 °F /  14.7 °C 56.7 °F /  13.7 °C 29.99in /  1015.5hPa Calm   3mph /  4.8km/h 94% 0.00in /  0mm 0 W/m2
01:40 58.4 °F /  14.7 °C 56.7 °F /  13.7 °C 29.99in /  1015.5hPa NW 2mph /  3.2km/h 4mph /  6.4km/h 94% 0.00in /  0mm 0 W/m2
01:50 57.9 °F /  14.4 °C 56.5 °F /  13.6 °C 29.99in /  1015.5hPa West 3mph /  4.8km/h 4mph /  6.4km/h 95% 0.00in /  0mm 0 W/m2
02:00 57.6 °F /  14.2 °C 56.1 °F /  13.4 °C 29.99in /  1015.5hPa WNW 1mph /  1.6km/h 4mph /  6.4km/h 95% 0.00in /  0mm 0 W/m2
02:10 57.6 °F /  14.2 °C 56.1 °F /  13.4 °C 29.99in /  1015.5hPa West 2mph /  3.2km/h 4mph /  6.4km/h 95% 0.00in /  0mm 0 W/m2
02:20 57.2 °F /  14 °C 55.8 °F /  13.2 °C 29.98in /  1015.1hPa West 2mph /  3.2km/h 4mph /  6.4km/h 95% 0.00in /  0mm 0 W/m2
02:30 56.8 °F /  13.8 °C 55.4 °F /  13 °C 29.98in /  1015.1hPa West 3mph /  4.8km/h 4mph /  6.4km/h 95% 0.00in /  0mm 0 W/m2
02:40 56.8 °F /  13.8 °C 55.7 °F /  13.2 °C 29.98in /  1015.1hPa West 2mph /  3.2km/h 5mph /  8km/h 96% 0.00in /  0mm 0 W/m2
02:50 56.5 °F /  13.6 °C 55.4 °F /  13 °C 29.97in /  1014.8hPa West 3mph /  4.8km/h 6mph /  9.7km/h 96% 0.00in /  0mm 0 W/m2
03:00 56.3 °F /  13.5 °C 55.2 °F /  12.9 °C 29.97in /  1014.8hPa WNW 1mph /  1.6km/h 3mph /  4.8km/h 96% 0.00in /  0mm 0 W/m2
03:10 56.1 °F /  13.4 °C 55 °F /  12.8 °C 29.97in /  1014.8hPa WSW 1mph /  1.6km/h 3mph /  4.8km/h 96% 0.00in /  0mm 0 W/m2
03:20 55.8 °F /  13.2 °C 54.6 °F /  12.6 °C 29.97in /  1014.8hPa West 2mph /  3.2km/h 6mph /  9.7km/h 96% 0.00in /  0mm 0 W/m2
03:30 55.6 °F /  13.1 °C 54.7 °F /  12.6 °C 29.97in /  1014.8hPa West 3mph /  4.8km/h 6mph /  9.7km/h 97% 0.00in /  0mm 0 W/m2
03:40 55.4 °F /  13 °C 54.8 °F /  12.7 °C 29.97in /  1014.8hPa West 3mph /  4.8km/h 5mph /  8km/h 98% 0.00in /  0mm 0 W/m2
03:50 55.2 °F /  12.9 °C 54.7 °F /  12.6 °C 29.97in /  1014.8hPa West 2mph /  3.2km/h 5mph /  8km/h 98% 0.00in /  0mm 0 W/m2
04:00 55 °F /  12.8 °C 54.5 °F /  12.5 °C 29.97in /  1014.8hPa WNW 2mph /  3.2km/h 3mph /  4.8km/h 98% 0.00in /  0mm 0 W/m2
04:10 55.2 °F /  12.9 °C 54.9 °F /  12.7 °C 29.96in /  1014.4hPa WNW 2mph /  3.2km/h 6mph /  9.7km/h 99% 0.00in /  0mm 0 W/m2
04:20 55.2 °F /  12.9 °C 54.9 °F /  12.7 °C 29.96in /  1014.4hPa WSW 2mph /  3.2km/h 5mph /  8km/h 99% 0.00in /  0mm 0 W/m2
04:30 55 °F /  12.8 °C 54.8 °F /  12.7 °C 29.96in /  1014.4hPa West 3mph /  4.8km/h 7mph /  11.3km/h 99% 0.00in /  0mm 0 W/m2
04:40 55 °F /  12.8 °C 54.8 °F /  12.7 °C 29.96in /  1014.4hPa West 3mph /  4.8km/h 6mph /  9.7km/h 99% 0.00in /  0mm 0 W/m2
04:50 55 °F /  12.8 °C 54.8 °F /  12.7 °C 29.96in /  1014.4hPa WSW 3mph /  4.8km/h 5mph /  8km/h 99% 0.00in /  0mm 0 W/m2
05:00 54.9 °F /  12.7 °C 54.6 °F /  12.6 °C 29.96in /  1014.4hPa WSW 3mph /  4.8km/h 5mph /  8km/h 99% 0.00in /  0mm 0 W/m2
05:10 54.7 °F /  12.6 °C 54.4 °F /  12.4 °C 29.96in /  1014.4hPa West 2mph /  3.2km/h 5mph /  8km/h 99% 0.00in /  0mm 0 W/m2
05:20 54.9 °F /  12.7 °C 54.6 °F /  12.6 °C 29.96in /  1014.4hPa WNW 3mph /  4.8km/h 7mph /  11.3km/h 99% 0.00in /  0mm 0 W/m2
05:30 55.2 °F /  12.9 °C 54.9 °F /  12.7 °C 29.96in /  1014.4hPa West 2mph /  3.2km/h 5mph /  8km/h 99% 0.00in /  0mm 0 W/m2
05:40 55.2 °F /  12.9 °C 54.9 °F /  12.7 °C 29.96in /  1014.4hPa SW 2mph /  3.2km/h 3mph /  4.8km/h 99% 0.00in /  0mm 0 W/m2
05:50 55 °F /  12.8 °C 54.8 °F /  12.7 °C 29.96in /  1014.4hPa WSW 2mph /  3.2km/h 5mph /  8km/h 99% 0.00in /  0mm 0 W/m2
06:00 55 °F /  12.8 °C 54.8 °F /  12.7 °C 29.96in /  1014.4hPa West 2mph /  3.2km/h 5mph /  8km/h 99% 0.00in /  0mm 0 W/m2
06:10 55 °F /  12.8 °C 54.8 °F /  12.7 °C 29.97in /  1014.8hPa West 3mph /  4.8km/h 5mph /  8km/h 99% 0.00in /  0mm 0 W/m2
06:20 55 °F /  12.8 °C 54.7 °F /  12.6 °C 29.97in /  1014.8hPa West 2mph /  3.2km/h 5mph /  8km/h 99% 0.00in /  0mm 5 W/m2
06:30 54.9 °F /  12.7 °C 54.6 °F /  12.6 °C 29.97in /  1014.8hPa WSW 2mph /  3.2km/h 4mph /  6.4km/h 99% 0.00in /  0mm 13 W/m2
06:40 54.9 °F /  12.7 °C 54.6 °F /  12.6 °C 29.97in /  1014.8hPa WSW 1mph /  1.6km/h 3mph /  4.8km/h 99% 0.00in /  0mm 22 W/m2
06:50 55 °F /  12.8 °C 54.8 °F /  12.7 °C 29.97in /  1014.8hPa West 1mph /  1.6km/h 3mph /  4.8km/h 99% 0.00in /  0mm 40 W/m2
07:00 55.4 °F /  13 °C 55.1 °F /  12.8 °C 29.97in /  1014.8hPa NW 1mph /  1.6km/h 3mph /  4.8km/h 99% 0.00in /  0mm 52 W/m2
07:10 55.8 °F /  13.2 °C 55.6 °F /  13.1 °C 29.97in /  1014.8hPa NW 1mph /  1.6km/h 2mph /  3.2km/h 99% 0.00in /  0mm 59 W/m2
07:20 55.8 °F /  13.2 °C 55.6 °F /  13.1 °C 29.97in /  1014.8hPa Calm   2mph /  3.2km/h 99% 0.00in /  0mm 51 W/m2
07:30 56.1 °F /  13.4 °C 55.8 °F /  13.2 °C 29.97in /  1014.8hPa Calm   3mph /  4.8km/h 99% 0.00in /  0mm 60 W/m2
07:40 56.3 °F /  13.5 °C 56 °F /  13.3 °C 29.97in /  1014.8hPa NW 1mph /  1.6km/h 3mph /  4.8km/h 99% 0.00in /  0mm 143 W/m2
07:50 56.7 °F /  13.7 °C 56.4 °F /  13.6 °C 29.96in /  1014.4hPa WSW 2mph /  3.2km/h 4mph /  6.4km/h 99% 0.00in /  0mm 76 W/m2
08:00 57 °F /  13.9 °C 56.7 °F /  13.7 °C 29.97in /  1014.8hPa WSW 3mph /  4.8km/h 7mph /  11.3km/h 99% 0.00in /  0mm 121 W/m2
08:10 57.6 °F /  14.2 °C 57.3 °F /  14.1 °C 29.96in /  1014.4hPa WSW 2mph /  3.2km/h 5mph /  8km/h 99% 0.00in /  0mm 115 W/m2
08:20 58.1 °F /  14.5 °C 57.8 °F /  14.3 °C 29.96in /  1014.4hPa SW 2mph /  3.2km/h 3mph /  4.8km/h 99% 0.00in /  0mm 143 W/m2
08:30 58.6 °F /  14.8 °C 58.4 °F /  14.7 °C 29.96in /  1014.4hPa WSW 1mph /  1.6km/h 3mph /  4.8km/h 99% 0.00in /  0mm 221 W/m2
08:40 59.8 °F /  15.4 °C 59.5 °F /  15.3 °C 29.96in /  1014.4hPa West 1mph /  1.6km/h 4mph /  6.4km/h 99% 0.00in /  0mm 378 W/m2
08:50 61.6 °F /  16.4 °C 61.3 °F /  16.3 °C 29.96in /  1014.4hPa West 2mph /  3.2km/h 5mph /  8km/h 99% 0.00in /  0mm 407 W/m2
09:00 63.4 °F /  17.4 °C 62.8 °F /  17.1 °C 29.95in /  1014.1hPa West 2mph /  3.2km/h 3mph /  4.8km/h 98% 0.00in /  0mm 428 W/m2
09:10 64.8 °F /  18.2 °C 63.7 °F /  17.6 °C 29.96in /  1014.4hPa West 1mph /  1.6km/h 5mph /  8km/h 96% 0.00in /  0mm 461 W/m2
09:20 66.6 °F /  19.2 °C 64.9 °F /  18.3 °C 29.95in /  1014.1hPa SW 1mph /  1.6km/h 4mph /  6.4km/h 94% 0.00in /  0mm 487 W/m2
09:30 68.5 °F /  20.3 °C 64.8 °F /  18.2 °C 29.95in /  1014.1hPa SSE 1mph /  1.6km/h 7mph /  11.3km/h 88% 0.00in /  0mm 512 W/m2
09:40 70.1 °F /  21.2 °C 65 °F /  18.3 °C 29.95in /  1014.1hPa SSE 3mph /  4.8km/h 7mph /  11.3km/h 84% 0.00in /  0mm 537 W/m2
09:50 71.5 °F /  21.9 °C 64.6 °F /  18.1 °C 29.95in /  1014.1hPa SE 2mph /  3.2km/h 9mph /  14.5km/h 79% 0.00in /  0mm 227 W/m2
10:00 72.7 °F /  22.6 °C 65.4 °F /  18.6 °C 29.95in /  1014.1hPa SSE 2mph /  3.2km/h 7mph /  11.3km/h 78% 0.00in /  0mm 403 W/m2
10:10 74.2 °F /  23.4 °C 65.8 °F /  18.8 °C 29.95in /  1014.1hPa SSE 3mph /  4.8km/h 7mph /  11.3km/h 75% 0.00in /  0mm 602 W/m2
10:20 74.7 °F /  23.7 °C 65.4 °F /  18.6 °C 29.95in /  1014.1hPa South 2mph /  3.2km/h 9mph /  14.5km/h 73% 0.00in /  0mm 144 W/m2
10:30 74.1 °F /  23.4 °C 64.5 °F /  18.1 °C 29.95in /  1014.1hPa SW 6mph /  9.7km/h 10mph /  16.1km/h 72% 0.00in /  0mm 173 W/m2
10:40 73.8 °F /  23.2 °C 64.2 °F /  17.9 °C 29.95in /  1014.1hPa SW 6mph /  9.7km/h 10mph /  16.1km/h 72% 0.00in /  0mm 202 W/m2
10:50 73.6 °F /  23.1 °C 64 °F /  17.8 °C 29.95in /  1014.1hPa SW 5mph /  8km/h 10mph /  16.1km/h 72% 0.00in /  0mm 155 W/m2
11:00 73.6 °F /  23.1 °C 64 °F /  17.8 °C 29.94in /  1013.8hPa SW 3mph /  4.8km/h 10mph /  16.1km/h 72% 0.00in /  0mm 110 W/m2
11:10 73.6 °F /  23.1 °C 64.4 °F /  18 °C 29.94in /  1013.8hPa WSW 1mph /  1.6km/h 6mph /  9.7km/h 73% 0.00in /  0mm 141 W/m2
11:20 73.7 °F /  23.2 °C 64.9 °F /  18.3 °C 29.94in /  1013.8hPa North 1mph /  1.6km/h 5mph /  8km/h 74% 0.00in /  0mm 445 W/m2
11:30 74.3 °F /  23.5 °C 65.1 °F /  18.4 °C 29.94in /  1013.8hPa NNE 2mph /  3.2km/h 6mph /  9.7km/h 73% 0.00in /  0mm 318 W/m2
11:40 75.2 °F /  24 °C 65.6 °F /  18.7 °C 29.93in /  1013.4hPa NNE 6mph /  9.7km/h 7mph /  11.3km/h 72% 0.00in /  0mm 251 W/m2
11:50 76.4 °F /  24.7 °C 65.9 °F /  18.8 °C 29.93in /  1013.4hPa NNE 6mph /  9.7km/h 12mph /  19.3km/h 70% 0.00in /  0mm 731 W/m2
12:00 78.2 °F /  25.7 °C 66.7 °F /  19.3 °C 29.93in /  1013.4hPa NE 5mph /  8km/h 12mph /  19.3km/h 68% 0.00in /  0mm 735 W/m2
12:10 79.1 °F /  26.2 °C 65.4 °F /  18.6 °C 29.93in /  1013.4hPa SE 3mph /  4.8km/h 9mph /  14.5km/h 63% 0.00in /  0mm 369 W/m2
12:20 77.9 °F /  25.5 °C 64.3 °F /  17.9 °C 29.92in /  1013.1hPa East 6mph /  9.7km/h 16mph /  25.7km/h 63% 0.00in /  0mm 104 W/m2
13:00 74.1 °F /  23.4 °C 62.4 °F /  16.9 °C 29.94in /  1013.8hPa ENE 5mph /  8km/h 12mph /  19.3km/h 67% 0.00in /  0mm 172 W/m2
13:10 70.8 °F /  21.6 °C 62.5 °F /  16.9 °C 29.95in /  1014.1hPa NNE 7mph /  11.3km/h 19mph /  30.6km/h 75% 0.00in /  0mm 12 W/m2
13:20 68.1 °F /  20.1 °C 61.7 °F /  16.5 °C 29.97in /  1014.8hPa North 3mph /  4.8km/h 18mph /  29km/h 80% 0.02in /  0.51mm 32 W/m2
13:30 66.6 °F /  19.2 °C 61.3 °F /  16.3 °C 29.97in /  1014.8hPa North 8mph /  12.9km/h 12mph /  19.3km/h 83% 0.01in /  0.25mm 118 W/m2
13:40 65.5 °F /  18.6 °C 61.2 °F /  16.2 °C 29.98in /  1015.1hPa North 2mph /  3.2km/h 10mph /  16.1km/h 86% 0.00in /  0mm 59 W/m2
13:50 64.8 °F /  18.2 °C 61.1 °F /  16.2 °C 29.99in /  1015.5hPa NNW 1mph /  1.6km/h 7mph /  11.3km/h 88% 0.01in /  0.25mm 43 W/m2
14:00 64.2 °F /  17.9 °C 61.2 °F /  16.2 °C 29.99in /  1015.5hPa North 2mph /  3.2km/h 13mph /  20.9km/h 90% 0.02in /  0.51mm 40 W/m2
14:10 63.7 °F /  17.6 °C 61 °F /  16.1 °C 30.00in /  1015.8hPa NNW 1mph /  1.6km/h 10mph /  16.1km/h 91% 0.00in /  0mm 228 W/m2
14:20 63.7 °F /  17.6 °C 61 °F /  16.1 °C 30.00in /  1015.8hPa NNW 1mph /  1.6km/h 8mph /  12.9km/h 91% 0.00in /  0mm 204 W/m2
14:30 63.7 °F /  17.6 °C 61 °F /  16.1 °C 30.00in /  1015.8hPa NNW 1mph /  1.6km/h 8mph /  12.9km/h 91% 0.00in /  0mm 174 W/m2
14:40 63.7 °F /  17.6 °C 61.3 °F /  16.3 °C 30.00in /  1015.8hPa North 3mph /  4.8km/h 6mph /  9.7km/h 92% 0.00in /  0mm 226 W/m2
14:50 63.9 °F /  17.7 °C 61.2 °F /  16.2 °C 30.01in /  1016.1hPa Calm   6mph /  9.7km/h 91% 0.00in /  0mm 142 W/m2
15:00 63.9 °F /  17.7 °C 60.9 °F /  16.1 °C 30.01in /  1016.1hPa NNE 1mph /  1.6km/h 4mph /  6.4km/h 90% 0.00in /  0mm 130 W/m2
15:10 63.7 °F /  17.6 °C 60.7 °F /  15.9 °C 30.01in /  1016.1hPa East 2mph /  3.2km/h 3mph /  4.8km/h 90% 0.00in /  0mm 65 W/m2
15:20 63.5 °F /  17.5 °C 60.8 °F /  16 °C 30.01in /  1016.1hPa SSE 3mph /  4.8km/h 4mph /  6.4km/h 91% 0.00in /  0mm 91 W/m2
15:30 63.3 °F /  17.4 °C 60.6 °F /  15.9 °C 30.02in /  1016.5hPa Calm   3mph /  4.8km/h 91% 0.00in /  0mm 22 W/m2
15:40 63.3 °F /  17.4 °C 61.3 °F /  16.3 °C 30.02in /  1016.5hPa West 1mph /  1.6km/h 2mph /  3.2km/h 93% 0.00in /  0mm 43 W/m2
15:50 63.3 °F /  17.4 °C 61.3 °F /  16.3 °C 30.03in /  1016.8hPa WSW 2mph /  3.2km/h 5mph /  8km/h 93% 0.00in /  0mm 20 W/m2
16:00 63.1 °F /  17.3 °C 61.1 °F /  16.2 °C 30.03in /  1016.8hPa WSW 1mph /  1.6km/h 4mph /  6.4km/h 93% 0.00in /  0mm 22 W/m2
16:10 63.1 °F /  17.3 °C 61.4 °F /  16.3 °C 30.04in /  1017.2hPa SW 2mph /  3.2km/h 3mph /  4.8km/h 94% 0.00in /  0mm 45 W/m2
16:20 63.1 °F /  17.3 °C 59.8 °F /  15.4 °C 30.03in /  1016.8hPa WSW 9mph /  14.5km/h 13mph /  20.9km/h 89% 0.00in /  0mm 52 W/m2
16:30 63 °F /  17.2 °C 59.3 °F /  15.2 °C 30.04in /  1017.2hPa West 5mph /  8km/h 12mph /  19.3km/h 88% 0.00in /  0mm 56 W/m2
16:40 62.7 °F /  17.1 °C 58.4 °F /  14.7 °C 30.04in /  1017.2hPa WSW 6mph /  9.7km/h 13mph /  20.9km/h 86% 0.00in /  0mm 37 W/m2
16:50 62.6 °F /  17 °C 58.4 °F /  14.7 °C 30.04in /  1017.2hPa West 3mph /  4.8km/h 13mph /  20.9km/h 86% 0.00in /  0mm 41 W/m2
17:00 62.5 °F /  16.9 °C 58.2 °F /  14.6 °C 30.06in /  1017.8hPa West 7mph /  11.3km/h 11mph /  17.7km/h 86% 0.00in /  0mm 61 W/m2
17:10 62.2 °F /  16.8 °C 58 °F /  14.4 °C 30.06in /  1017.8hPa WNW 8mph /  12.9km/h 14mph /  22.5km/h 86% 0.00in /  0mm 26 W/m2
17:20 61.7 °F /  16.5 °C 57.1 °F /  13.9 °C 30.07in /  1018.2hPa West 5mph /  8km/h 15mph /  24.1km/h 85% 0.00in /  0mm 21 W/m2
17:30 61.2 °F /  16.2 °C 56.9 °F /  13.8 °C 30.08in /  1018.5hPa WSW 8mph /  12.9km/h 13mph /  20.9km/h 86% 0.00in /  0mm 20 W/m2
17:40 60.5 °F /  15.8 °C 56.9 °F /  13.8 °C 30.08in /  1018.5hPa West 7mph /  11.3km/h 15mph /  24.1km/h 88% 0.00in /  0mm 22 W/m2
17:50 59.9 °F /  15.5 °C 56.3 °F /  13.5 °C 30.08in /  1018.5hPa West 9mph /  14.5km/h 14mph /  22.5km/h 88% 0.00in /  0mm 20 W/m2
18:00 59.5 °F /  15.3 °C 56 °F /  13.3 °C 30.08in /  1018.5hPa West 8mph /  12.9km/h 15mph /  24.1km/h 88% 0.00in /  0mm 13 W/m2
18:10 59.4 °F /  15.2 °C 55.8 °F /  13.2 °C 30.08in /  1018.5hPa West 9mph /  14.5km/h 16mph /  25.7km/h 88% 0.00in /  0mm 10 W/m2
18:20 59.2 °F /  15.1 °C 55.6 °F /  13.1 °C 30.09in /  1018.8hPa West 9mph /  14.5km/h 14mph /  22.5km/h 88% 0.00in /  0mm 5 W/m2
18:30 59 °F /  15 °C 55.4 °F /  13 °C 30.10in /  1019.2hPa West 7mph /  11.3km/h 14mph /  22.5km/h 88% 0.00in /  0mm 1 W/m2
18:40 58.8 °F /  14.9 °C 55.3 °F /  12.9 °C 30.10in /  1019.2hPa West 6mph /  9.7km/h 13mph /  20.9km/h 88% 0.00in /  0mm 0 W/m2
18:50 58.6 °F /  14.8 °C 55.1 °F /  12.8 °C 30.11in /  1019.5hPa West 7mph /  11.3km/h 13mph /  20.9km/h 88% 0.00in /  0mm 0 W/m2
19:00 58.3 °F /  14.6 °C 55.1 °F /  12.8 °C 30.11in /  1019.5hPa WSW 7mph /  11.3km/h 15mph /  24.1km/h 89% 0.01in /  0.25mm 0 W/m2
19:10 57.9 °F /  14.4 °C 55 °F /  12.8 °C 30.12in /  1019.9hPa WSW 3mph /  4.8km/h 12mph /  19.3km/h 90% 0.01in /  0.25mm 0 W/m2
19:20 57.7 °F /  14.3 °C 54.8 °F /  12.7 °C 30.12in /  1019.9hPa SW 6mph /  9.7km/h 8mph /  12.9km/h 90% 0.00in /  0mm 0 W/m2
19:30 57.4 °F /  14.1 °C 54.8 °F /  12.7 °C 30.12in /  1019.9hPa WSW 6mph /  9.7km/h 9mph /  14.5km/h 91% 0.00in /  0mm 0 W/m2
19:40 57.4 °F /  14.1 °C 54.5 °F /  12.5 °C 30.13in /  1020.2hPa West 8mph /  12.9km/h 15mph /  24.1km/h 90% 0.00in /  0mm 0 W/m2
19:50 57.3 °F /  14.1 °C 54.3 °F /  12.4 °C 30.14in /  1020.5hPa WSW 6mph /  9.7km/h 14mph /  22.5km/h 90% 0.00in /  0mm 0 W/m2
20:00 57.2 °F /  14 °C 54.3 °F /  12.4 °C 30.14in /  1020.5hPa WSW 6mph /  9.7km/h 12mph /  19.3km/h 90% 0.00in /  0mm 0 W/m2
20:10 57 °F /  13.9 °C 54.1 °F /  12.3 °C 30.15in /  1020.9hPa WSW 7mph /  11.3km/h 11mph /  17.7km/h 90% 0.00in /  0mm 0 W/m2
20:20 56.8 °F /  13.8 °C 54.2 °F /  12.3 °C 30.15in /  1020.9hPa WSW 5mph /  8km/h 12mph /  19.3km/h 91% 0.00in /  0mm 0 W/m2
20:30 56.7 °F /  13.7 °C 54.1 °F /  12.3 °C 30.16in /  1021.2hPa WSW 7mph /  11.3km/h 12mph /  19.3km/h 91% 0.00in /  0mm 0 W/m2
20:40 56.5 °F /  13.6 °C 53.9 °F /  12.2 °C 30.17in /  1021.6hPa WSW 5mph /  8km/h 11mph /  17.7km/h 91% 0.00in /  0mm 0 W/m2
20:50 56.5 °F /  13.6 °C 53.9 °F /  12.2 °C 30.17in /  1021.6hPa SW 3mph /  4.8km/h 8mph /  12.9km/h 91% 0.00in /  0mm 0 W/m2
21:00 56.3 °F /  13.5 °C 53.7 °F /  12.1 °C 30.17in /  1021.6hPa WSW 5mph /  8km/h 9mph /  14.5km/h 91% 0.00in /  0mm 0 W/m2
21:10 56.3 °F /  13.5 °C 53.7 °F /  12.1 °C 30.17in /  1021.6hPa WSW 2mph /  3.2km/h 8mph /  12.9km/h 91% 0.00in /  0mm 0 W/m2
21:20 56.3 °F /  13.5 °C 53.4 °F /  11.9 °C 30.17in /  1021.6hPa SW 5mph /  8km/h 7mph /  11.3km/h 90% 0.00in /  0mm 0 W/m2
21:30 56.3 °F /  13.5 °C 53.4 °F /  11.9 °C 30.17in /  1021.6hPa SW 5mph /  8km/h 8mph /  12.9km/h 90% 0.00in /  0mm 0 W/m2
21:40 56.3 °F /  13.5 °C 53.1 °F /  11.7 °C 30.18in /  1021.9hPa SW 5mph /  8km/h 8mph /  12.9km/h 89% 0.00in /  0mm 0 W/m2
21:50 56.4 °F /  13.6 °C 53.2 °F /  11.8 °C 30.18in /  1021.9hPa WSW 2mph /  3.2km/h 7mph /  11.3km/h 89% 0.00in /  0mm 0 W/m2
22:00 56.3 °F /  13.5 °C 53.1 °F /  11.7 °C 30.18in /  1021.9hPa SW 3mph /  4.8km/h 8mph /  12.9km/h 89% 0.00in /  0mm 0 W/m2
22:10 56.3 °F /  13.5 °C 52.8 °F /  11.6 °C 30.19in /  1022.2hPa WSW 7mph /  11.3km/h 12mph /  19.3km/h 88% 0.00in /  0mm 0 W/m2
22:20 56.1 °F /  13.4 °C 52.9 °F /  11.6 °C 30.19in /  1022.2hPa WSW 5mph /  8km/h 9mph /  14.5km/h 89% 0.00in /  0mm 0 W/m2
22:30 56.1 °F /  13.4 °C 52.9 °F /  11.6 °C 30.19in /  1022.2hPa WSW 6mph /  9.7km/h 10mph /  16.1km/h 89% 0.00in /  0mm 0 W/m2
22:40 55.9 °F /  13.3 °C 51.8 °F /  11 °C 30.20in /  1022.6hPa WSW 7mph /  11.3km/h 13mph /  20.9km/h 86% 0.00in /  0mm 0 W/m2
22:50 55.8 °F /  13.2 °C 51.6 °F /  10.9 °C 30.20in /  1022.6hPa WSW 6mph /  9.7km/h 13mph /  20.9km/h 86% 0.00in /  0mm 0 W/m2
23:00 55.8 °F /  13.2 °C 51.6 °F /  10.9 °C 30.19in /  1022.2hPa WSW 6mph /  9.7km/h 12mph /  19.3km/h 86% 0.00in /  0mm 0 W/m2
23:10 55.6 °F /  13.1 °C 51.5 °F /  10.8 °C 30.20in /  1022.6hPa West 8mph /  12.9km/h 12mph /  19.3km/h 86% 0.00in /  0mm 0 W/m2
23:20 55.6 °F /  13.1 °C 51.5 °F /  10.8 °C 30.20in /  1022.6hPa West 6mph /  9.7km/h 12mph /  19.3km/h 86% 0.00in /  0mm 0 W/m2
23:30 55.6 °F /  13.1 °C 51.5 °F /  10.8 °C 30.20in /  1022.6hPa West 8mph /  12.9km/h 13mph /  20.9km/h 86% 0.00in /  0mm 0 W/m2
23:40 55.4 °F /  13 °C 51.9 °F /  11.1 °C 30.20in /  1022.6hPa West 6mph /  9.7km/h 13mph /  20.9km/h 88% 0.00in /  0mm 0 W/m2
23:50 55.2 °F /  12.9 °C 51.7 °F /  10.9 °C 30.20in /  1022.6hPa West 5mph /  8km/h 8mph /  12.9km/h 88% 0.00in /  0mm 0 W/m2
Knjazevac, Serbia
Compliments of Weather Underground - 2 mb